createdAt,value
2019-05-29T00:00:12.919Z,4.70
2019-05-29T00:02:40.884Z,4.40
2019-05-29T00:05:08.774Z,5.17
2019-05-29T00:07:36.510Z,4.23
2019-05-29T00:10:06.191Z,5.03
2019-05-29T00:12:34.048Z,5.03
2019-05-29T00:15:01.796Z,5.43
2019-05-29T00:17:29.765Z,6.03
2019-05-29T00:19:59.305Z,5.53
2019-05-29T00:22:27.004Z,5.20
2019-05-29T00:24:54.917Z,5.70
2019-05-29T00:27:22.682Z,4.80
2019-05-29T00:29:50.408Z,5.80
2019-05-29T00:32:18.414Z,6.20
2019-05-29T00:34:46.153Z,5.97
2019-05-29T00:37:14.618Z,5.43
2019-05-29T00:39:42.641Z,5.70
2019-05-29T00:42:13.194Z,6.20
2019-05-29T00:44:41.102Z,5.40
2019-05-29T00:47:09.503Z,5.73
2019-05-29T00:49:37.838Z,5.97
2019-05-29T00:52:05.704Z,6.10
2019-05-29T00:54:33.508Z,6.80
2019-05-29T00:57:01.440Z,5.73
2019-05-29T00:59:29.139Z,6.50
2019-05-29T01:01:56.886Z,5.97
2019-05-29T01:04:24.753Z,6.47
2019-05-29T01:06:52.465Z,6.83
2019-05-29T01:09:20.767Z,6.47
2019-05-29T01:11:48.960Z,6.80
2019-05-29T01:14:19.397Z,6.37
2019-05-29T01:16:47.378Z,6.30
2019-05-29T01:19:24.076Z,7.50
2019-05-29T01:21:52.164Z,6.80
2019-05-29T01:24:20.648Z,7.57
2019-05-29T01:26:48.794Z,7.10
2019-05-29T01:29:16.993Z,8.10
2019-05-29T01:31:45.046Z,8.27
2019-05-29T01:34:13.527Z,8.57
2019-05-29T01:36:41.368Z,8.67
2019-05-29T01:39:09.387Z,8.80
2019-05-29T01:41:39.006Z,9.00
2019-05-29T01:44:07.021Z,8.90
2019-05-29T01:46:34.724Z,7.47
2019-05-29T01:49:02.576Z,7.47
2019-05-29T01:51:30.307Z,8.63
2019-05-29T01:53:58.019Z,8.10
2019-05-29T01:56:25.902Z,7.57
2019-05-29T01:58:53.980Z,8.80
2019-05-29T02:01:21.959Z,8.60
2019-05-29T02:03:49.768Z,9.63
2019-05-29T02:06:17.944Z,8.47
2019-05-29T02:08:45.802Z,9.53
2019-05-29T02:11:13.505Z,9.47
2019-05-29T02:13:41.420Z,8.93
2019-05-29T02:16:09.278Z,8.37
2019-05-29T02:18:37.124Z,9.10
2019-05-29T02:21:05.240Z,8.97
2019-05-29T02:23:34.749Z,8.60
2019-05-29T02:26:02.481Z,10.60
2019-05-29T02:28:30.377Z,9.90
2019-05-29T02:30:58.332Z,9.90
2019-05-29T02:33:26.818Z,10.37
2019-05-29T02:35:55.860Z,11.20
2019-05-29T02:38:25.074Z,10.63
2019-05-29T02:40:53.165Z,10.80
2019-05-29T02:43:21.499Z,11.30
2019-05-29T02:45:54.660Z,10.97
2019-05-29T02:48:21.402Z,10.27
2019-05-29T02:50:50.853Z,9.70
2019-05-29T02:53:22.100Z,9.37
2019-05-29T02:55:50.277Z,9.30
2019-05-29T02:58:18.002Z,10.83
2019-05-29T03:00:55.334Z,10.10
2019-05-29T03:03:26.578Z,11.33
2019-05-29T03:05:55.336Z,9.80
2019-05-29T03:08:24.621Z,9.60
2019-05-29T03:10:52.854Z,10.33
2019-05-29T03:13:20.579Z,11.07
2019-05-29T03:16:05.723Z,10.90
2019-05-29T03:18:18.235Z,9.97
2019-05-29T03:20:45.920Z,10.37
2019-05-29T03:23:14.877Z,10.63
2019-05-29T03:25:42.580Z,10.20
2019-05-29T03:28:10.409Z,10.50
2019-05-29T03:30:45.359Z,9.37
2019-05-29T03:33:07.741Z,11.50
2019-05-29T03:35:43.444Z,10.43
2019-05-29T03:38:05.575Z,10.97
2019-05-29T03:40:35.157Z,10.27
2019-05-29T03:43:03.358Z,12.07
2019-05-29T03:45:34.024Z,13.73
2019-05-29T03:48:01.998Z,12.30
2019-05-29T03:50:33.303Z,12.37
2019-05-29T03:53:01.407Z,11.90
2019-05-29T03:55:29.358Z,12.97
2019-05-29T03:57:57.338Z,13.30
2019-05-29T04:00:29.886Z,13.60
2019-05-29T04:02:54.861Z,14.30
2019-05-29T04:05:22.714Z,14.80
2019-05-29T04:07:50.576Z,13.70
2019-05-29T04:10:29.341Z,14.13
2019-05-29T04:12:59.917Z,13.70
2019-05-29T04:15:33.830Z,14.10
2019-05-29T04:18:04.545Z,13.37
2019-05-29T04:20:33.973Z,13.60
2019-05-29T04:23:05.508Z,13.27
2019-05-29T04:25:40.593Z,13.60
2019-05-29T04:28:07.430Z,12.17
2019-05-29T04:30:36.532Z,13.83
2019-05-29T04:33:05.108Z,12.97
2019-05-29T04:35:34.461Z,13.43
2019-05-29T04:38:02.653Z,13.03
2019-05-29T04:40:30.650Z,14.90
2019-05-29T04:42:58.377Z,12.97
2019-05-29T04:45:26.311Z,12.93
2019-05-29T04:47:54.143Z,14.30
2019-05-29T04:50:21.895Z,15.40
2019-05-29T04:52:49.816Z,15.60
2019-05-29T04:55:17.515Z,14.10
2019-05-29T04:57:45.216Z,13.80
2019-05-29T05:00:13.855Z,13.20
2019-05-29T05:02:41.559Z,12.93
2019-05-29T05:05:09.888Z,12.00
2019-05-29T05:07:37.584Z,13.57
2019-05-29T05:10:06.346Z,13.90
2019-05-29T05:12:35.787Z,12.00
2019-05-29T05:15:04.158Z,13.87
2019-05-29T05:17:32.062Z,13.10
2019-05-29T05:19:59.893Z,13.17
2019-05-29T05:22:27.604Z,14.13
2019-05-29T05:24:55.535Z,13.00
2019-05-29T05:27:23.255Z,11.90
2019-05-29T05:29:50.974Z,14.10
2019-05-29T05:32:18.828Z,13.63
2019-05-29T05:34:46.584Z,13.60
2019-05-29T05:37:14.279Z,12.73
2019-05-29T05:39:42.389Z,11.90
2019-05-29T05:42:10.082Z,12.70
2019-05-29T05:44:39.008Z,12.33
2019-05-29T05:47:07.079Z,11.00
2019-05-29T05:49:35.436Z,11.00
2019-05-29T05:52:03.436Z,9.30
2019-05-29T05:54:31.396Z,10.10
2019-05-29T05:56:59.381Z,8.40
2019-05-29T05:59:27.128Z,8.83
2019-05-29T06:01:54.852Z,7.90
2019-05-29T06:04:22.685Z,7.00
2019-05-29T06:06:50.574Z,7.63
2019-05-29T06:09:18.304Z,8.07
2019-05-29T06:11:46.006Z,6.90
2019-05-29T06:14:13.863Z,6.47
2019-05-29T06:16:42.753Z,6.70
2019-05-29T06:19:10.646Z,6.90
2019-05-29T06:21:38.832Z,6.40
2019-05-29T06:24:06.760Z,7.00
2019-05-29T06:26:34.873Z,5.93
2019-05-29T06:29:02.950Z,5.50
2019-05-29T06:31:30.691Z,5.93
2019-05-29T06:33:58.409Z,5.90
2019-05-29T06:36:26.391Z,6.37
2019-05-29T06:38:54.289Z,6.50
2019-05-29T06:41:23.530Z,5.63
2019-05-29T06:43:51.259Z,5.40
2019-05-29T06:46:18.978Z,6.30
2019-05-29T06:48:58.615Z,5.17
2019-05-29T06:51:16.456Z,5.77
2019-05-29T06:53:44.302Z,5.13
2019-05-29T06:56:12.419Z,5.27
2019-05-29T06:58:40.487Z,5.03
2019-05-29T07:01:08.452Z,5.60
2019-05-29T07:03:37.545Z,5.10
2019-05-29T07:06:05.512Z,4.80
2019-05-29T07:08:38.970Z,5.20
2019-05-29T07:11:03.305Z,5.00
2019-05-29T07:13:34.703Z,4.77
2019-05-29T07:16:00.773Z,5.10
2019-05-29T07:18:28.680Z,4.73
2019-05-29T07:20:56.400Z,4.20
2019-05-29T07:23:25.501Z,4.00
2019-05-29T07:25:53.410Z,3.73
2019-05-29T07:28:21.296Z,3.87
2019-05-29T07:30:59.638Z,4.30
2019-05-29T07:33:18.863Z,4.03
2019-05-29T07:55:53.671Z,4.07
2019-05-29T07:58:23.203Z,4.13
2019-05-29T08:01:09.760Z,3.73
2019-05-29T08:03:20.742Z,3.47
2019-05-29T08:05:51.429Z,3.37
2019-05-29T08:08:18.222Z,3.47
2019-05-29T08:10:45.967Z,3.17
2019-05-29T08:13:13.903Z,3.30
2019-05-29T08:15:53.958Z,3.00
2019-05-29T08:18:11.563Z,2.90
2019-05-29T08:20:39.815Z,3.10
2019-05-29T08:23:09.559Z,3.07
2019-05-29T08:25:37.437Z,2.60
2019-05-29T08:28:05.307Z,2.63
2019-05-29T08:30:33.012Z,3.67
2019-05-29T08:33:00.857Z,3.00
2019-05-29T08:35:28.547Z,2.97
2019-05-29T08:37:56.300Z,3.03
2019-05-29T08:40:24.346Z,2.67
2019-05-29T08:42:52.056Z,2.67
2019-05-29T08:45:19.908Z,2.80
2019-05-29T08:47:49.762Z,2.60
2019-05-29T08:50:19.261Z,2.70
2019-05-29T08:52:48.092Z,2.70
2019-05-29T08:55:15.992Z,2.70
2019-05-29T08:57:44.215Z,2.80
2019-05-29T09:00:12.705Z,3.30
2019-05-29T09:02:40.632Z,2.40
2019-05-29T09:05:09.284Z,2.70
2019-05-29T09:07:37.138Z,3.33
2019-05-29T09:10:06.862Z,3.00
2019-05-29T09:12:34.599Z,3.33
2019-05-29T09:15:02.541Z,2.37
2019-05-29T09:17:57.946Z,2.53
2019-05-29T09:22:34.084Z,2.37
2019-05-29T09:24:36.837Z,2.73
2019-05-29T09:27:04.804Z,2.90
2019-05-29T09:29:32.553Z,3.50
2019-05-29T09:32:00.456Z,3.13
2019-05-29T09:34:28.169Z,3.00
2019-05-29T09:36:56.146Z,2.67
2019-05-29T09:39:24.839Z,3.10
2019-05-29T09:41:52.968Z,2.90
2019-05-29T09:44:33.934Z,2.80
2019-05-29T09:46:50.658Z,3.30
2019-05-29T09:49:18.481Z,3.50
2019-05-29T09:51:47.119Z,3.50
2019-05-29T09:54:15.105Z,3.27
2019-05-29T09:56:43.017Z,3.37
2019-05-29T09:59:10.949Z,3.03
2019-05-29T10:01:39.032Z,3.20
2019-05-29T10:04:07.075Z,3.67
2019-05-29T10:06:34.969Z,2.73
2019-05-29T10:09:04.872Z,3.23
2019-05-29T10:11:32.557Z,3.57
2019-05-29T10:14:01.405Z,2.80
2019-05-29T10:16:30.438Z,3.13
2019-05-29T10:19:00.431Z,3.00
2019-05-29T10:21:40.270Z,3.10
2019-05-29T10:23:59.598Z,3.00
2019-05-29T10:26:27.475Z,3.20
2019-05-29T10:29:05.484Z,3.40
2019-05-29T10:36:46.977Z,2.97
2019-05-29T10:39:13.696Z,3.03
2019-05-29T10:41:42.653Z,3.37
2019-05-29T10:44:12.809Z,3.40
2019-05-29T10:46:40.417Z,3.30
2019-05-29T10:49:08.098Z,3.20
2019-05-29T10:51:35.983Z,3.13
2019-05-29T10:54:03.836Z,3.20
2019-05-29T10:56:31.532Z,3.07
2019-05-29T10:59:00.275Z,3.10
2019-05-29T11:01:28.445Z,3.23
2019-05-29T11:03:56.215Z,3.63
2019-05-29T11:06:23.942Z,3.60
2019-05-29T11:08:52.070Z,3.70
2019-05-29T11:11:20.123Z,3.17
2019-05-29T11:13:48.656Z,3.40
2019-05-29T11:16:16.581Z,4.20
2019-05-29T11:18:44.348Z,3.93
2019-05-29T11:21:12.241Z,3.90
2019-05-29T11:23:40.079Z,3.40
2019-05-29T11:26:09.807Z,3.80
2019-05-29T11:28:37.532Z,3.30
2019-05-29T11:31:07.167Z,3.30
2019-05-29T11:33:35.092Z,3.10
2019-05-29T11:36:10.748Z,3.67
2019-05-29T11:38:32.541Z,3.77
2019-05-29T11:41:24.751Z,4.07
2019-05-29T11:43:30.021Z,4.00
2019-05-29T11:45:59.484Z,3.60
2019-05-29T11:48:27.436Z,4.00
2019-05-29T11:50:56.254Z,3.37
2019-05-29T11:53:24.190Z,3.20
2019-05-29T11:55:52.463Z,3.43
2019-05-29T11:58:31.235Z,3.77
2019-05-29T12:00:51.485Z,3.57
2019-05-29T12:03:19.227Z,3.57
2019-05-29T12:05:47.136Z,4.10
2019-05-29T12:08:14.853Z,4.53
2019-05-29T12:10:42.775Z,4.43
2019-05-29T12:13:10.511Z,4.80
2019-05-29T12:15:38.250Z,4.43
2019-05-29T12:18:20.022Z,5.77
2019-05-29T12:20:36.000Z,5.70
2019-05-29T12:23:25.074Z,5.87
2019-05-29T12:25:33.468Z,6.13
2019-05-29T12:28:01.441Z,6.30
2019-05-29T12:30:30.215Z,6.47
2019-05-29T12:32:59.065Z,5.80
2019-05-29T12:35:27.040Z,6.50
2019-05-29T12:37:55.164Z,7.00
2019-05-29T12:40:23.269Z,5.90
2019-05-29T12:42:51.042Z,5.87
2019-05-29T12:45:19.779Z,6.30
2019-05-29T12:47:47.478Z,5.70
2019-05-29T12:50:16.315Z,5.40
2019-05-29T12:52:44.224Z,6.20
2019-05-29T12:55:13.984Z,6.13
2019-05-29T12:57:41.941Z,6.03
2019-05-29T13:00:10.467Z,6.10
2019-05-29T13:02:38.194Z,5.70
2019-05-29T13:05:18.059Z,5.57
2019-05-29T13:07:40.148Z,5.60
2019-05-29T13:10:09.981Z,5.47
2019-05-29T13:12:39.508Z,5.60
2019-05-29T13:15:08.974Z,4.97
2019-05-29T13:17:36.878Z,5.57
2019-05-29T13:20:20.107Z,4.80
2019-05-29T13:22:36.028Z,5.57
2019-05-29T13:25:05.529Z,5.23
2019-05-29T13:27:33.487Z,5.20
2019-05-29T13:30:03.565Z,5.60
2019-05-29T13:32:30.860Z,5.77
2019-05-29T13:35:00.415Z,6.00
2019-05-29T13:37:30.079Z,5.87
2019-05-29T13:39:58.015Z,5.47
2019-05-29T13:42:25.700Z,6.13
2019-05-29T13:44:54.022Z,6.07
2019-05-29T13:47:22.046Z,6.20
2019-05-29T13:49:49.773Z,5.90
2019-05-29T13:52:17.632Z,6.00
2019-05-29T13:54:45.368Z,5.57
2019-05-29T13:57:13.385Z,6.00
2019-05-29T13:59:41.259Z,6.30
2019-05-29T14:02:10.427Z,5.90
2019-05-29T14:04:38.529Z,5.20
2019-05-29T14:07:06.763Z,5.00
2019-05-29T14:09:34.613Z,5.00
2019-05-29T14:12:03.046Z,5.83
2019-05-29T14:14:30.976Z,5.80
2019-05-29T14:16:58.692Z,5.67
2019-05-29T14:19:26.577Z,6.77
2019-05-29T14:21:54.304Z,5.70
2019-05-29T14:24:29.333Z,5.47
2019-05-29T14:26:51.818Z,5.60
2019-05-29T14:29:19.741Z,6.43
2019-05-29T14:31:47.676Z,6.20
2019-05-29T14:34:15.410Z,6.20
2019-05-29T14:36:43.317Z,5.57
2019-05-29T14:39:12.530Z,6.10
2019-05-29T14:41:40.252Z,6.37
2019-05-29T14:44:08.153Z,5.97
2019-05-29T14:46:36.035Z,5.90
2019-05-29T14:49:04.347Z,5.60
2019-05-29T14:51:32.284Z,5.70
2019-05-29T14:54:02.643Z,6.37
2019-05-29T14:56:32.856Z,6.33
2019-05-29T14:59:00.918Z,6.20
2019-05-29T15:01:28.641Z,6.50
2019-05-29T15:03:56.544Z,5.90
2019-05-29T15:06:24.278Z,6.90
2019-05-29T15:08:51.999Z,5.80
2019-05-29T15:11:19.859Z,6.33
2019-05-29T15:13:49.567Z,6.13
2019-05-29T15:16:17.432Z,6.90
2019-05-29T15:18:45.214Z,6.40
2019-05-29T15:21:13.213Z,7.57
2019-05-29T15:23:40.952Z,7.00
2019-05-29T15:26:09.661Z,6.40
2019-05-29T15:28:37.722Z,5.40
2019-05-29T15:31:06.337Z,7.60
2019-05-29T15:33:34.193Z,6.87
2019-05-29T15:36:02.075Z,6.50
2019-05-29T15:38:29.781Z,6.70
2019-05-29T15:40:57.524Z,7.27
2019-05-29T15:43:25.458Z,6.23
2019-05-29T15:45:53.190Z,7.00
2019-05-29T15:48:21.123Z,8.43
2019-05-29T15:50:48.885Z,6.80
2019-05-29T15:53:17.866Z,6.80
2019-05-29T15:55:45.670Z,6.57
2019-05-29T15:58:13.543Z,7.10
2019-05-29T16:00:41.497Z,6.67
2019-05-29T16:03:09.546Z,6.40
2019-05-29T16:05:38.467Z,7.20
2019-05-29T16:08:07.873Z,8.17
2019-05-29T16:10:35.957Z,8.30
2019-05-29T16:13:03.905Z,8.03
2019-05-29T16:15:31.611Z,8.50
2019-05-29T16:18:00.599Z,6.70
2019-05-29T16:20:28.293Z,7.20
2019-05-29T16:22:56.140Z,7.10
2019-05-29T16:25:39.645Z,7.17
2019-05-29T16:27:55.368Z,6.43
2019-05-29T16:30:23.321Z,6.90
2019-05-29T16:32:51.446Z,7.43
2019-05-29T16:35:19.713Z,7.10
2019-05-29T16:37:47.670Z,7.43
2019-05-29T16:40:18.040Z,7.20
2019-05-29T16:42:45.967Z,7.50
2019-05-29T16:45:16.173Z,9.03
2019-05-29T16:47:44.356Z,8.70
2019-05-29T16:50:14.987Z,7.17
2019-05-29T16:52:42.944Z,8.60
2019-05-29T16:55:12.841Z,8.93
2019-05-29T16:57:40.960Z,8.20
2019-05-29T17:00:09.399Z,9.30
2019-05-29T17:02:37.262Z,9.50
2019-05-29T17:05:05.843Z,8.90
2019-05-29T17:07:33.850Z,7.40
2019-05-29T17:10:02.042Z,8.53
2019-05-29T17:12:30.122Z,7.70
2019-05-29T17:14:58.176Z,9.30
2019-05-29T17:17:25.900Z,8.80
2019-05-29T17:19:55.574Z,8.20
2019-05-29T17:22:23.312Z,10.10
2019-05-29T17:24:51.080Z,9.73
2019-05-29T17:27:19.106Z,10.00
2019-05-29T17:29:46.955Z,9.50
2019-05-29T17:32:14.843Z,9.40
2019-05-29T17:34:42.823Z,10.00
2019-05-29T17:37:10.558Z,8.97
2019-05-29T17:39:38.435Z,9.13
2019-05-29T17:42:06.424Z,7.73
2019-05-29T17:44:34.181Z,9.00
2019-05-29T17:47:03.735Z,8.57
2019-05-29T17:49:34.641Z,8.70
2019-05-29T17:52:01.275Z,8.77
2019-05-29T17:54:29.162Z,8.90
2019-05-29T17:56:57.338Z,8.33
2019-05-29T17:59:26.327Z,8.77
2019-05-29T18:01:54.520Z,9.10
2019-05-29T18:04:22.643Z,8.60
2019-05-29T18:06:50.575Z,10.03
2019-05-29T18:09:19.238Z,9.10
2019-05-29T18:11:47.631Z,9.27
2019-05-29T18:14:15.475Z,9.37
2019-05-29T18:16:43.214Z,8.87
2019-05-29T18:19:11.150Z,9.30
2019-05-29T18:21:39.021Z,10.50
2019-05-29T18:24:06.780Z,13.17
2019-05-29T18:26:46.274Z,13.93
2019-05-29T18:29:05.809Z,14.57
2019-05-29T18:31:33.563Z,14.43
2019-05-29T18:34:01.437Z,14.23
2019-05-29T18:36:29.677Z,12.50
2019-05-29T18:38:57.577Z,14.20
2019-05-29T18:41:26.333Z,13.23
2019-05-29T18:43:54.363Z,12.67
2019-05-29T18:46:23.180Z,12.40
2019-05-29T18:48:51.072Z,11.43
2019-05-29T18:51:20.346Z,11.20
2019-05-29T18:53:48.243Z,10.87
2019-05-29T18:56:15.956Z,9.90
2019-05-29T18:58:43.911Z,10.60
2019-05-29T19:01:11.830Z,10.90
2019-05-29T19:03:40.624Z,9.13
2019-05-29T19:06:08.657Z,10.30
2019-05-29T19:08:38.229Z,9.17
2019-05-29T19:11:06.182Z,9.43
2019-05-29T19:13:34.182Z,9.30
2019-05-29T19:16:01.936Z,9.60
2019-05-29T19:18:30.229Z,10.37
2019-05-29T19:20:58.288Z,10.20
2019-05-29T19:23:28.771Z,10.40
2019-05-29T19:25:56.566Z,11.73
2019-05-29T19:28:24.618Z,10.67
2019-05-29T19:30:52.415Z,10.80
2019-05-29T19:33:20.187Z,11.63
2019-05-29T19:35:48.167Z,11.70
2019-05-29T19:38:16.142Z,13.53
2019-05-29T19:40:45.685Z,14.53
2019-05-29T19:43:13.627Z,13.80
2019-05-29T19:45:41.379Z,12.73
2019-05-29T19:48:09.373Z,13.90
2019-05-29T19:50:37.108Z,14.50
2019-05-29T19:53:04.852Z,14.73
2019-05-29T19:55:37.040Z,13.70
2019-05-29T19:58:04.372Z,13.40
2019-05-29T20:00:32.289Z,13.23
2019-05-29T20:03:00.306Z,12.50
2019-05-29T20:05:28.629Z,13.07
2019-05-29T20:07:56.467Z,12.60
2019-05-29T20:10:24.391Z,13.03
2019-05-29T20:12:52.224Z,11.77
2019-05-29T20:15:19.934Z,9.13
2019-05-29T20:17:47.825Z,8.30
2019-05-29T20:20:15.962Z,6.63
2019-05-29T20:22:43.699Z,7.30
2019-05-29T20:25:13.865Z,5.07
2019-05-29T20:27:42.512Z,5.23
2019-05-29T20:30:15.753Z,4.47
2019-05-29T20:32:43.653Z,4.50
2019-05-29T20:35:11.499Z,3.97
2019-05-29T20:37:39.420Z,3.50
2019-05-29T20:40:08.199Z,4.30
2019-05-29T20:42:36.372Z,4.60
2019-05-29T20:45:05.009Z,4.07
2019-05-29T20:47:33.631Z,3.80
2019-05-29T20:50:02.892Z,3.60
2019-05-29T20:52:31.057Z,3.50
2019-05-29T20:54:59.120Z,3.93
2019-05-29T20:57:28.662Z,3.70
2019-05-29T20:59:56.681Z,3.70
2019-05-29T21:02:24.448Z,4.33
2019-05-29T21:04:52.555Z,3.70
2019-05-29T21:07:20.529Z,3.80
2019-05-29T21:09:48.480Z,3.37
2019-05-29T21:12:16.313Z,4.00
2019-05-29T21:14:44.735Z,3.33
2019-05-29T21:17:12.916Z,3.27
2019-05-29T21:19:40.827Z,3.60
2019-05-29T21:22:08.577Z,3.53
2019-05-29T21:24:36.518Z,3.97
2019-05-29T21:27:04.384Z,3.50
2019-05-29T21:29:32.198Z,3.83
2019-05-29T21:32:00.134Z,3.50
2019-05-29T21:34:28.013Z,3.07
2019-05-29T21:36:55.730Z,3.83
2019-05-29T21:39:23.641Z,3.50
2019-05-29T21:41:51.613Z,3.60
2019-05-29T21:44:19.398Z,3.57
2019-05-29T21:46:47.301Z,3.60
2019-05-29T21:49:15.139Z,3.30
2019-05-29T21:51:43.635Z,3.23
2019-05-29T21:54:12.029Z,3.57
2019-05-29T21:56:39.781Z,3.63
2019-05-29T21:59:09.499Z,3.50
2019-05-29T22:01:38.048Z,3.73
2019-05-29T22:04:07.032Z,3.90
2019-05-29T22:06:36.858Z,3.37
2019-05-29T22:09:12.476Z,4.07
2019-05-29T22:11:40.666Z,3.93
2019-05-29T22:14:08.553Z,3.50
2019-05-29T22:16:36.570Z,4.00
2019-05-29T22:19:04.638Z,4.10
2019-05-29T22:21:33.634Z,4.33
2019-05-29T22:24:01.435Z,4.30
2019-05-29T22:26:29.244Z,3.80
2019-05-29T22:29:01.509Z,5.10
2019-05-29T22:31:26.972Z,4.40
2019-05-29T22:33:55.396Z,4.20
2019-05-29T22:36:23.575Z,4.10
2019-05-29T22:38:51.454Z,4.07
2019-05-29T22:41:19.502Z,3.97
2019-05-29T22:43:47.447Z,4.43
2019-05-29T22:46:15.302Z,3.80
2019-05-29T22:48:43.193Z,4.13
2019-05-29T22:51:10.983Z,3.77
2019-05-29T22:53:38.991Z,4.60
2019-05-29T22:56:06.900Z,4.00
2019-05-29T22:58:34.798Z,4.30
2019-05-29T23:01:02.567Z,4.20
2019-05-29T23:03:30.325Z,4.60
2019-05-29T23:06:00.379Z,5.67
2019-05-29T23:08:28.367Z,5.97
2019-05-29T23:10:56.386Z,5.87
2019-05-29T23:13:24.137Z,6.20
2019-05-29T23:15:54.496Z,7.33
2019-05-29T23:18:22.554Z,6.70
2019-05-29T23:20:50.271Z,6.77
2019-05-29T23:23:18.172Z,6.37
2019-05-29T23:25:46.070Z,6.57
2019-05-29T23:28:14.964Z,7.30
2019-05-29T23:30:42.756Z,8.13
2019-05-29T23:33:10.713Z,8.37
2019-05-29T23:35:38.471Z,8.57
2019-05-29T23:38:06.215Z,9.23
2019-05-29T23:40:34.076Z,10.17
2019-05-29T23:43:02.065Z,9.13
2019-05-29T23:45:29.949Z,10.10
2019-05-29T23:47:57.736Z,9.60
2019-05-29T23:50:25.447Z,9.67
2019-05-29T23:52:53.622Z,10.20
2019-05-29T23:55:21.648Z,11.27
2019-05-29T23:57:49.378Z,9.77
